Time;durP1;ratioP1;P1;durP2;ratioP2;P2;SDS_P1;SDS_P2;PMS_P1;PMS_P2;Temp;Humidity;BMP_temperature;BMP_pressure;BME280_temperature;BME280_humidity;BME280_pressure;Samples;Min_cycle;Max_cycle;Signal;HPM_P1;HPM_P2
2022/09/16 00:00:00;;;;;;;0.5;0.5;;;;;;;13.9;100.0;100840;;;;
2022/09/16 00:01:00;;;;;;;0.5;0.5;;;;;;;13.9;100.0;100840;;;;
2022/09/16 00:02:00;;;;;;;0.5;0.5;;;;;;;13.9;100.0;100840;;;;
2022/09/16 00:03:00;;;;;;;0.5;0.5;;;;;;;13.8;100.0;100840;;;;
2022/09/16 00:04:00;;;;;;;0.5;0.5;;;;;;;13.8;100.0;100840;;;;
2022/09/16 00:05:00;;;;;;;0.5;0.5;;;;;;;13.8;100.0;100840;;;;
2022/09/16 00:06:00;;;;;;;0.5;0.5;;;;;;;13.8;100.0;100840;;;;
2022/09/16 00:07:00;;;;;;;0.5;0.5;;;;;;;13.8;100.0;100840;;;;
2022/09/16 00:08:00;;;;;;;0.5;0.5;;;;;;;13.9;100.0;100840;;;;
2022/09/16 00:09:00;;;;;;;0.5;0.5;;;;;;;13.9;100.0;100840;;;;
2022/09/16 00:10:00;;;;;;;0.5;0.5;;;;;;;13.8;100.0;100840;;;;
2022/09/16 00:11:00;;;;;;;0.5;0.5;;;;;;;13.8;100.0;100840;;;;
2022/09/16 00:12:00;;;;;;;0.5;0.5;;;;;;;13.8;100.0;100840;;;;
2022/09/16 00:13:00;;;;;;;0.5;0.5;;;;;;;13.8;100.0;100840;;;;
2022/09/16 00:14:00;;;;;;;0.5;0.5;;;;;;;13.8;100.0;100830;;;;
2022/09/16 00:15:00;;;;;;;0.5;0.5;;;;;;;13.8;100.0;100830;;;;
2022/09/16 00:16:00;;;;;;;0.5;0.5;;;;;;;13.8;100.0;100830;;;;
2022/09/16 00:17:00;;;;;;;0.5;0.5;;;;;;;13.8;100.0;100830;;;;
2022/09/16 00:18:00;;;;;;;0.6;0.6;;;;;;;13.9;100.0;100830;;;;
2022/09/16 00:19:00;;;;;;;0.6;0.6;;;;;;;13.9;100.0;100830;;;;
2022/09/16 00:20:00;;;;;;;0.6;0.6;;;;;;;13.8;100.0;100830;;;;
2022/09/16 00:21:00;;;;;;;0.6;0.6;;;;;;;13.8;100.0;100830;;;;
2022/09/16 00:30:00;;;;;;;0.6;0.6;;;;;;;13.8;100.0;100820;;;;
2022/09/16 00:31:00;;;;;;;0.6;0.6;;;;;;;13.8;100.0;100820;;;;
2022/09/16 00:32:00;;;;;;;0.6;0.6;;;;;;;13.9;100.0;100830;;;;
2022/09/16 00:34:00;;;;;;;0.6;0.6;;;;;;;13.8;100.0;100830;;;;
2022/09/16 00:36:04;;;;;;;0.6;0.6;;;;;;;13.8;100.0;100830;;;;
2022/09/16 00:37:02;;;;;;;0.6;0.6;;;;;;;13.8;100.0;100830;;;;
2022/09/16 00:38:00;;;;;;;0.7;0.7;;;;;;;13.7;100.0;100830;;;;
2022/09/16 00:39:00;;;;;;;0.7;0.7;;;;;;;13.7;100.0;100830;;;;
2022/09/16 00:40:00;;;;;;;0.7;0.7;;;;;;;13.7;100.0;100830;;;;
2022/09/16 00:41:00;;;;;;;0.7;0.7;;;;;;;13.7;100.0;100830;;;;
2022/09/16 00:42:00;;;;;;;0.7;0.7;;;;;;;13.8;100.0;100830;;;;
2022/09/16 00:43:00;;;;;;;0.7;0.7;;;;;;;13.8;100.0;100830;;;;
2022/09/16 00:44:03;;;;;;;0.7;0.7;;;;;;;13.8;100.0;100830;;;;
2022/09/16 00:45:02;;;;;;;0.7;0.7;;;;;;;13.8;100.0;100830;;;;
2022/09/16 00:47:00;;;;;;;0.7;0.7;;;;;;;13.8;100.0;100820;;;;
2022/09/16 00:50:07;;;;;;;0.7;0.7;;;;;;;13.7;100.0;100830;;;;
2022/09/16 00:52:02;;;;;;;0.7;0.7;;;;;;;13.8;100.0;100830;;;;
2022/09/16 00:53:00;;;;;;;0.7;0.7;;;;;;;13.8;100.0;100830;;;;
2022/09/16 00:57:01;;;;;;;0.7;0.7;;;;;;;13.9;100.0;100820;;;;
2022/09/16 00:58:05;;;;;;;0.6;0.6;;;;;;;13.8;100.0;100820;;;;
2022/09/16 00:59:03;;;;;;;0.6;0.6;;;;;;;13.8;100.0;100820;;;;
2022/09/16 01:00:00;;;;;;;0.6;0.6;;;;;;;13.8;100.0;100820;;;;
2022/09/16 01:01:00;;;;;;;0.6;0.6;;;;;;;13.8;100.0;100820;;;;
2022/09/16 01:02:04;;;;;;;0.6;0.6;;;;;;;13.9;100.0;100820;;;;
2022/09/16 01:03:00;;;;;;;0.6;0.6;;;;;;;13.9;100.0;100820;;;;
2022/09/16 01:04:03;;;;;;;0.6;0.6;;;;;;;13.8;100.0;100820;;;;
2022/09/16 01:05:04;;;;;;;0.6;0.6;;;;;;;13.8;100.0;100820;;;;
2022/09/16 01:06:01;;;;;;;0.6;0.6;;;;;;;13.8;100.0;100820;;;;
2022/09/16 01:07:00;;;;;;;0.6;0.6;;;;;;;13.8;100.0;100820;;;;
2022/09/16 01:08:00;;;;;;;0.6;0.6;;;;;;;13.7;100.0;100810;;;;
2022/09/16 01:09:01;;;;;;;0.6;0.6;;;;;;;13.7;100.0;100810;;;;
2022/09/16 01:10:00;;;;;;;0.6;0.6;;;;;;;13.6;100.0;100820;;;;
2022/09/16 01:11:00;;;;;;;0.6;0.6;;;;;;;13.6;100.0;100820;;;;
2022/09/16 01:12:00;;;;;;;0.6;0.6;;;;;;;13.6;100.0;100820;;;;
2022/09/16 01:13:03;;;;;;;0.6;0.6;;;;;;;13.6;100.0;100820;;;;
2022/09/16 01:15:01;;;;;;;0.6;0.6;;;;;;;13.6;100.0;100820;;;;
2022/09/16 01:16:05;;;;;;;0.6;0.6;;;;;;;13.6;100.0;100820;;;;
2022/09/16 01:17:07;;;;;;;0.6;0.6;;;;;;;13.6;100.0;100820;;;;
2022/09/16 01:18:09;;;;;;;0.4;0.4;;;;;;;13.7;100.0;100820;;;;
2022/09/16 01:19:01;;;;;;;0.4;0.4;;;;;;;13.7;100.0;100820;;;;
2022/09/16 01:20:01;;;;;;;0.4;0.4;;;;;;;13.6;100.0;100820;;;;
2022/09/16 01:21:05;;;;;;;0.4;0.4;;;;;;;13.6;100.0;100820;;;;
2022/09/16 01:22:01;;;;;;;0.4;0.4;;;;;;;13.6;100.0;100820;;;;
2022/09/16 01:23:01;;;;;;;0.4;0.4;;;;;;;13.6;100.0;100820;;;;
2022/09/16 01:24:09;;;;;;;0.4;0.4;;;;;;;13.5;100.0;100820;;;;
2022/09/16 01:25:03;;;;;;;0.4;0.4;;;;;;;13.5;100.0;100820;;;;
2022/09/16 01:26:00;;;;;;;0.4;0.4;;;;;;;13.6;100.0;100820;;;;
2022/09/16 01:27:10;;;;;;;0.4;0.4;;;;;;;13.6;100.0;100820;;;;
2022/09/16 01:28:08;;;;;;;0.4;0.4;;;;;;;13.6;100.0;100820;;;;
2022/09/16 01:29:10;;;;;;;0.4;0.4;;;;;;;13.6;100.0;100820;;;;
2022/09/16 01:30:10;;;;;;;0.4;0.4;;;;;;;13.6;100.0;100820;;;;
2022/09/16 01:31:03;;;;;;;0.4;0.4;;;;;;;13.6;100.0;100820;;;;
2022/09/16 01:32:05;;;;;;;0.4;0.4;;;;;;;13.6;100.0;100820;;;;
2022/09/16 01:33:00;;;;;;;0.4;0.4;;;;;;;13.6;100.0;100820;;;;
2022/09/16 01:34:10;;;;;;;0.4;0.4;;;;;;;13.6;100.0;100810;;;;
2022/09/16 01:35:01;;;;;;;0.4;0.4;;;;;;;13.6;100.0;100810;;;;
2022/09/16 01:36:05;;;;;;;0.4;0.4;;;;;;;13.6;100.0;100820;;;;
2022/09/16 01:37:01;;;;;;;0.4;0.4;;;;;;;13.6;100.0;100820;;;;
2022/09/16 01:38:08;;;;;;;0.6;0.6;;;;;;;13.7;100.0;100810;;;;
2022/09/16 01:39:00;;;;;;;0.6;0.6;;;;;;;13.7;100.0;100810;;;;
2022/09/16 01:40:07;;;;;;;0.6;0.6;;;;;;;13.6;100.0;100820;;;;
2022/09/16 01:41:10;;;;;;;0.6;0.6;;;;;;;13.6;100.0;100820;;;;
2022/09/16 01:42:01;;;;;;;0.6;0.6;;;;;;;13.6;100.0;100820;;;;
2022/09/16 01:43:10;;;;;;;0.6;0.6;;;;;;;13.6;100.0;100820;;;;
2022/09/16 01:44:07;;;;;;;0.6;0.6;;;;;;;13.5;100.0;100820;;;;
2022/09/16 01:45:07;;;;;;;0.6;0.6;;;;;;;13.5;100.0;100820;;;;
2022/09/16 01:46:00;;;;;;;0.6;0.6;;;;;;;13.3;100.0;100810;;;;
2022/09/16 01:47:04;;;;;;;0.6;0.6;;;;;;;13.3;100.0;100810;;;;
2022/09/16 01:48:07;;;;;;;0.6;0.6;;;;;;;13.4;100.0;100820;;;;
2022/09/16 01:49:10;;;;;;;0.6;0.6;;;;;;;13.4;100.0;100820;;;;
2022/09/16 01:50:01;;;;;;;0.6;0.6;;;;;;;13.5;100.0;100820;;;;
2022/09/16 01:51:04;;;;;;;0.6;0.6;;;;;;;13.5;100.0;100820;;;;
2022/09/16 01:52:06;;;;;;;0.6;0.6;;;;;;;13.5;100.0;100810;;;;
2022/09/16 01:53:10;;;;;;;0.6;0.6;;;;;;;13.5;100.0;100810;;;;
2022/09/16 01:54:02;;;;;;;0.6;0.6;;;;;;;13.4;100.0;100810;;;;
2022/09/16 01:55:02;;;;;;;0.6;0.6;;;;;;;13.4;100.0;100810;;;;
2022/09/16 01:56:10;;;;;;;0.6;0.6;;;;;;;13.4;100.0;100810;;;;
2022/09/16 01:57:05;;;;;;;0.6;0.6;;;;;;;13.4;100.0;100810;;;;
2022/09/16 01:58:10;;;;;;;1.2;1.2;;;;;;;13.5;100.0;100810;;;;
2022/09/16 01:59:04;;;;;;;1.2;1.2;;;;;;;13.5;100.0;100810;;;;
2022/09/16 02:00:05;;;;;;;1.2;1.2;;;;;;;13.5;100.0;100820;;;;
2022/09/16 02:01:04;;;;;;;1.2;1.2;;;;;;;13.5;100.0;100820;;;;
2022/09/16 02:02:04;;;;;;;1.2;1.2;;;;;;;13.6;100.0;100820;;;;
2022/09/16 02:03:04;;;;;;;1.2;1.2;;;;;;;13.6;100.0;100820;;;;
2022/09/16 02:04:05;;;;;;;1.2;1.2;;;;;;;13.5;100.0;100820;;;;
2022/09/16 02:05:02;;;;;;;1.2;1.2;;;;;;;13.5;100.0;100820;;;;
2022/09/16 02:06:03;;;;;;;1.2;1.2;;;;;;;13.5;100.0;100820;;;;
2022/09/16 02:07:02;;;;;;;1.2;1.2;;;;;;;13.5;100.0;100820;;;;
2022/09/16 02:08:03;;;;;;;1.2;1.2;;;;;;;13.5;100.0;100820;;;;
2022/09/16 02:09:03;;;;;;;1.2;1.2;;;;;;;13.5;100.0;100820;;;;
2022/09/16 02:10:06;;;;;;;1.2;1.2;;;;;;;13.5;100.0;100820;;;;
2022/09/16 02:11:03;;;;;;;1.2;1.2;;;;;;;13.5;100.0;100820;;;;
2022/09/16 02:12:04;;;;;;;1.2;1.2;;;;;;;13.4;100.0;100820;;;;
2022/09/16 02:13:04;;;;;;;1.2;1.2;;;;;;;13.4;100.0;100820;;;;
2022/09/16 02:14:10;;;;;;;1.2;1.2;;;;;;;13.5;100.0;100830;;;;
2022/09/16 02:15:02;;;;;;;1.2;1.2;;;;;;;13.5;100.0;100830;;;;
2022/09/16 02:16:03;;;;;;;1.2;1.2;;;;;;;13.6;100.0;100830;;;;
2022/09/16 02:17:02;;;;;;;1.2;1.2;;;;;;;13.6;100.0;100830;;;;
2022/09/16 02:18:03;;;;;;;0.5;0.5;;;;;;;13.6;100.0;100830;;;;
2022/09/16 02:19:05;;;;;;;0.5;0.5;;;;;;;13.6;100.0;100830;;;;
2022/09/16 02:20:03;;;;;;;0.5;0.5;;;;;;;13.6;100.0;100820;;;;
2022/09/16 02:21:01;;;;;;;0.5;0.5;;;;;;;13.6;100.0;100820;;;;
2022/09/16 02:22:02;;;;;;;0.5;0.5;;;;;;;13.6;100.0;100820;;;;
2022/09/16 02:23:05;;;;;;;0.5;0.5;;;;;;;13.6;100.0;100820;;;;
2022/09/16 02:24:02;;;;;;;0.5;0.5;;;;;;;13.5;100.0;100820;;;;
2022/09/16 02:25:02;;;;;;;0.5;0.5;;;;;;;13.5;100.0;100820;;;;
2022/09/16 02:26:01;;;;;;;0.5;0.5;;;;;;;13.6;100.0;100820;;;;
2022/09/16 02:27:02;;;;;;;0.5;0.5;;;;;;;13.6;100.0;100820;;;;
2022/09/16 02:28:01;;;;;;;0.5;0.5;;;;;;;13.6;100.0;100820;;;;
2022/09/16 02:36:01;;;;;;;0.5;0.5;;;;;;;13.5;100.0;100820;;;;
2022/09/16 02:37:03;;;;;;;0.5;0.5;;;;;;;13.5;100.0;100820;;;;
2022/09/16 02:38:03;;;;;;;0.6;0.6;;;;;;;13.5;100.0;100820;;;;
2022/09/16 02:39:07;;;;;;;0.6;0.6;;;;;;;13.5;100.0;100820;;;;
2022/09/16 02:40:04;;;;;;;0.6;0.6;;;;;;;13.5;100.0;100820;;;;
2022/09/16 02:41:00;;;;;;;0.6;0.6;;;;;;;13.5;100.0;100820;;;;
2022/09/16 02:42:00;;;;;;;0.6;0.6;;;;;;;13.4;100.0;100820;;;;
2022/09/16 02:43:00;;;;;;;0.6;0.6;;;;;;;13.4;100.0;100820;;;;
2022/09/16 02:44:00;;;;;;;0.6;0.6;;;;;;;13.4;100.0;100820;;;;
2022/09/16 02:45:01;;;;;;;0.6;0.6;;;;;;;13.3;100.0;100820;;;;
2022/09/16 02:46:01;;;;;;;0.6;0.6;;;;;;;13.3;100.0;100810;;;;
2022/09/16 02:47:07;;;;;;;0.6;0.6;;;;;;;13.3;100.0;100810;;;;
2022/09/16 02:48:03;;;;;;;0.6;0.6;;;;;;;13.3;100.0;100810;;;;
2022/09/16 02:49:09;;;;;;;0.6;0.6;;;;;;;13.3;100.0;100810;;;;
2022/09/16 02:50:10;;;;;;;0.6;0.6;;;;;;;13.3;100.0;100810;;;;
2022/09/16 02:51:09;;;;;;;0.6;0.6;;;;;;;13.3;100.0;100810;;;;
2022/09/16 02:52:10;;;;;;;0.6;0.6;;;;;;;13.2;100.0;100810;;;;
2022/09/16 02:53:01;;;;;;;0.6;0.6;;;;;;;13.2;100.0;100810;;;;
2022/09/16 02:54:00;;;;;;;0.6;0.6;;;;;;;13.1;100.0;100810;;;;
2022/09/16 02:55:04;;;;;;;0.6;0.6;;;;;;;13.1;100.0;100810;;;;
2022/09/16 02:56:04;;;;;;;0.6;0.6;;;;;;;13.0;100.0;100810;;;;
2022/09/16 02:57:00;;;;;;;0.6;0.6;;;;;;;13.0;100.0;100810;;;;
2022/09/16 02:58:00;;;;;;;0.6;0.6;;;;;;;13.1;100.0;100810;;;;
2022/09/16 02:59:01;;;;;;;0.6;0.6;;;;;;;13.1;100.0;100810;;;;
2022/09/16 03:00:00;;;;;;;0.6;0.6;;;;;;;13.1;100.0;100810;;;;
2022/09/16 03:01:00;;;;;;;0.6;0.6;;;;;;;13.1;100.0;100810;;;;
2022/09/16 03:02:00;;;;;;;0.6;0.6;;;;;;;13.1;100.0;100810;;;;
2022/09/16 03:03:00;;;;;;;0.6;0.6;;;;;;;13.1;100.0;100810;;;;
2022/09/16 03:04:00;;;;;;;0.6;0.6;;;;;;;13.0;100.0;100810;;;;
2022/09/16 03:05:00;;;;;;;0.6;0.6;;;;;;;13.0;100.0;100810;;;;
2022/09/16 03:06:09;;;;;;;0.6;0.6;;;;;;;13.0;100.0;100810;;;;
2022/09/16 03:07:02;;;;;;;0.6;0.6;;;;;;;13.0;100.0;100810;;;;
2022/09/16 03:08:02;;;;;;;0.6;0.6;;;;;;;12.9;100.0;100810;;;;
2022/09/16 03:09:01;;;;;;;0.6;0.6;;;;;;;12.9;100.0;100810;;;;
2022/09/16 03:10:00;;;;;;;0.6;0.6;;;;;;;12.9;100.0;100810;;;;
2022/09/16 03:11:05;;;;;;;0.6;0.6;;;;;;;12.9;100.0;100810;;;;
2022/09/16 03:12:03;;;;;;;0.6;0.6;;;;;;;12.9;100.0;100810;;;;
2022/09/16 03:13:08;;;;;;;0.6;0.6;;;;;;;12.9;100.0;100810;;;;
2022/09/16 03:14:09;;;;;;;0.6;0.6;;;;;;;12.9;100.0;100800;;;;
2022/09/16 03:15:07;;;;;;;0.6;0.6;;;;;;;12.9;100.0;100800;;;;
2022/09/16 03:16:00;;;;;;;0.6;0.6;;;;;;;12.9;100.0;100800;;;;
2022/09/16 03:17:10;;;;;;;0.6;0.6;;;;;;;12.9;100.0;100800;;;;
2022/09/16 03:18:00;;;;;;;0.7;0.7;;;;;;;12.8;100.0;100810;;;;
2022/09/16 03:19:10;;;;;;;0.7;0.7;;;;;;;12.8;100.0;100810;;;;
2022/09/16 03:20:00;;;;;;;0.7;0.7;;;;;;;12.9;100.0;100810;;;;
2022/09/16 03:21:10;;;;;;;0.7;0.7;;;;;;;12.9;100.0;100810;;;;
2022/09/16 03:22:09;;;;;;;0.7;0.7;;;;;;;12.8;100.0;100810;;;;
2022/09/16 03:23:10;;;;;;;0.7;0.7;;;;;;;12.8;100.0;100810;;;;
2022/09/16 03:24:10;;;;;;;0.7;0.7;;;;;;;12.8;100.0;100800;;;;
2022/09/16 03:25:06;;;;;;;0.7;0.7;;;;;;;12.8;100.0;100800;;;;
2022/09/16 03:26:10;;;;;;;0.7;0.7;;;;;;;12.7;100.0;100810;;;;
2022/09/16 03:27:04;;;;;;;0.7;0.7;;;;;;;12.7;100.0;100810;;;;
2022/09/16 03:28:07;;;;;;;0.7;0.7;;;;;;;12.7;100.0;100800;;;;
2022/09/16 03:29:11;;;;;;;0.7;0.7;;;;;;;12.7;100.0;100800;;;;
2022/09/16 03:30:04;;;;;;;0.7;0.7;;;;;;;12.7;100.0;100800;;;;
2022/09/16 03:31:07;;;;;;;0.7;0.7;;;;;;;12.7;100.0;100800;;;;
2022/09/16 03:32:09;;;;;;;0.7;0.7;;;;;;;12.9;100.0;100800;;;;
2022/09/16 03:33:05;;;;;;;0.7;0.7;;;;;;;12.9;100.0;100800;;;;
2022/09/16 03:34:10;;;;;;;0.7;0.7;;;;;;;12.9;100.0;100800;;;;
2022/09/16 03:35:03;;;;;;;0.7;0.7;;;;;;;12.9;100.0;100800;;;;
2022/09/16 03:36:02;;;;;;;0.7;0.7;;;;;;;12.8;100.0;100800;;;;
2022/09/16 03:37:03;;;;;;;0.7;0.7;;;;;;;12.8;100.0;100800;;;;
2022/09/16 03:38:01;;;;;;;1.0;1.0;;;;;;;13.0;100.0;100810;;;;
2022/09/16 03:39:02;;;;;;;1.0;1.0;;;;;;;13.0;100.0;100810;;;;
2022/09/16 03:40:04;;;;;;;1.0;1.0;;;;;;;12.8;100.0;100800;;;;
2022/09/16 03:41:01;;;;;;;1.0;1.0;;;;;;;12.8;100.0;100800;;;;
2022/09/16 03:42:01;;;;;;;1.0;1.0;;;;;;;12.9;100.0;100800;;;;
2022/09/16 03:43:08;;;;;;;1.0;1.0;;;;;;;12.9;100.0;100800;;;;
2022/09/16 03:44:04;;;;;;;1.0;1.0;;;;;;;12.9;100.0;100800;;;;
2022/09/16 03:45:00;;;;;;;1.0;1.0;;;;;;;12.9;100.0;100800;;;;
2022/09/16 03:46:00;;;;;;;1.0;1.0;;;;;;;12.9;100.0;100800;;;;
2022/09/16 03:47:00;;;;;;;1.0;1.0;;;;;;;12.9;100.0;100800;;;;
2022/09/16 03:48:00;;;;;;;1.0;1.0;;;;;;;12.9;100.0;100800;;;;
2022/09/16 03:52:00;;;;;;;1.0;1.0;;;;;;;13.0;100.0;100800;;;;
2022/09/16 03:53:00;;;;;;;1.0;1.0;;;;;;;13.0;100.0;100800;;;;
2022/09/16 03:54:00;;;;;;;1.0;1.0;;;;;;;13.0;100.0;100800;;;;
2022/09/16 03:55:00;;;;;;;1.0;1.0;;;;;;;13.0;100.0;100800;;;;
2022/09/16 03:56:00;;;;;;;1.0;1.0;;;;;;;13.0;100.0;100800;;;;
2022/09/16 03:57:00;;;;;;;1.0;1.0;;;;;;;13.0;100.0;100800;;;;
2022/09/16 04:08:00;;;;;;;0.7;0.7;;;;;;;12.9;100.0;100790;;;;
2022/09/16 04:09:01;;;;;;;0.7;0.7;;;;;;;12.9;100.0;100790;;;;
2022/09/16 04:10:00;;;;;;;0.7;0.7;;;;;;;12.8;100.0;100800;;;;
2022/09/16 04:11:01;;;;;;;0.7;0.7;;;;;;;12.8;100.0;100800;;;;
2022/09/16 04:12:00;;;;;;;0.7;0.7;;;;;;;12.9;100.0;100800;;;;
2022/09/16 04:13:00;;;;;;;0.7;0.7;;;;;;;12.9;100.0;100800;;;;
2022/09/16 04:14:00;;;;;;;0.7;0.7;;;;;;;12.8;100.0;100800;;;;
2022/09/16 04:15:01;;;;;;;0.7;0.7;;;;;;;12.8;100.0;100800;;;;
2022/09/16 04:16:00;;;;;;;0.7;0.7;;;;;;;12.8;100.0;100800;;;;
2022/09/16 04:17:00;;;;;;;0.7;0.7;;;;;;;12.8;100.0;100800;;;;
2022/09/16 04:18:00;;;;;;;0.7;0.7;;;;;;;12.8;100.0;100800;;;;
2022/09/16 04:19:00;;;;;;;0.7;0.7;;;;;;;12.8;100.0;100800;;;;
2022/09/16 04:20:00;;;;;;;0.7;0.7;;;;;;;12.8;100.0;100800;;;;
2022/09/16 04:21:01;;;;;;;0.7;0.7;;;;;;;12.8;100.0;100800;;;;
2022/09/16 04:22:00;;;;;;;0.7;0.7;;;;;;;12.7;100.0;100800;;;;
2022/09/16 04:23:00;;;;;;;0.7;0.7;;;;;;;12.7;100.0;100800;;;;
2022/09/16 04:24:00;;;;;;;0.7;0.7;;;;;;;12.8;100.0;100810;;;;
2022/09/16 04:25:00;;;;;;;0.7;0.7;;;;;;;12.8;100.0;100810;;;;
2022/09/16 04:26:01;;;;;;;0.7;0.7;;;;;;;12.7;100.0;100800;;;;
2022/09/16 04:27:00;;;;;;;0.7;0.7;;;;;;;12.7;100.0;100800;;;;
2022/09/16 04:28:00;;;;;;;0.7;0.7;;;;;;;12.6;100.0;100800;;;;
2022/09/16 04:29:00;;;;;;;0.7;0.7;;;;;;;12.6;100.0;100800;;;;
2022/09/16 04:30:00;;;;;;;0.7;0.7;;;;;;;12.7;100.0;100800;;;;
2022/09/16 04:31:01;;;;;;;0.7;0.7;;;;;;;12.7;100.0;100800;;;;
2022/09/16 04:32:00;;;;;;;0.7;0.7;;;;;;;12.7;100.0;100800;;;;
2022/09/16 04:33:00;;;;;;;0.7;0.7;;;;;;;12.7;100.0;100800;;;;
2022/09/16 04:34:01;;;;;;;0.7;0.7;;;;;;;12.6;100.0;100810;;;;
2022/09/16 04:35:00;;;;;;;0.7;0.7;;;;;;;12.6;100.0;100810;;;;
2022/09/16 04:36:00;;;;;;;0.7;0.7;;;;;;;12.6;100.0;100810;;;;
2022/09/16 04:37:00;;;;;;;0.6;0.6;;;;;;;12.6;100.0;100810;;;;
2022/09/16 04:38:00;;;;;;;0.6;0.6;;;;;;;12.5;100.0;100810;;;;
2022/09/16 04:39:00;;;;;;;0.6;0.6;;;;;;;12.5;100.0;100810;;;;
2022/09/16 04:40:05;;;;;;;0.6;0.6;;;;;;;12.6;100.0;100810;;;;
2022/09/16 04:41:05;;;;;;;0.6;0.6;;;;;;;12.6;100.0;100810;;;;
2022/09/16 04:42:00;;;;;;;0.6;0.6;;;;;;;12.5;100.0;100820;;;;
2022/09/16 04:43:00;;;;;;;0.6;0.6;;;;;;;12.5;100.0;100820;;;;
2022/09/16 04:44:00;;;;;;;0.6;0.6;;;;;;;12.5;100.0;100810;;;;
2022/09/16 04:45:00;;;;;;;0.6;0.6;;;;;;;12.5;100.0;100810;;;;
2022/09/16 04:46:00;;;;;;;0.6;0.6;;;;;;;12.6;100.0;100810;;;;
2022/09/16 04:47:00;;;;;;;0.6;0.6;;;;;;;12.6;100.0;100810;;;;
2022/09/16 04:48:00;;;;;;;0.6;0.6;;;;;;;12.6;100.0;100810;;;;
2022/09/16 04:49:00;;;;;;;0.6;0.6;;;;;;;12.6;100.0;100810;;;;
2022/09/16 04:50:00;;;;;;;0.6;0.6;;;;;;;12.6;100.0;100810;;;;
2022/09/16 04:51:03;;;;;;;0.6;0.6;;;;;;;12.7;100.0;100810;;;;
2022/09/16 04:52:00;;;;;;;0.6;0.6;;;;;;;12.7;100.0;100800;;;;
2022/09/16 04:53:00;;;;;;;0.6;0.6;;;;;;;12.7;100.0;100800;;;;
2022/09/16 04:54:00;;;;;;;0.6;0.6;;;;;;;12.7;100.0;100810;;;;
2022/09/16 04:55:00;;;;;;;0.6;0.6;;;;;;;12.7;100.0;100810;;;;
2022/09/16 04:56:02;;;;;;;0.6;0.6;;;;;;;12.7;100.0;100810;;;;
2022/09/16 04:57:00;;;;;;;0.7;0.7;;;;;;;12.7;100.0;100810;;;;
2022/09/16 04:58:00;;;;;;;0.7;0.7;;;;;;;12.8;100.0;100810;;;;
2022/09/16 04:59:01;;;;;;;0.7;0.7;;;;;;;12.8;100.0;100810;;;;
2022/09/16 05:00:00;;;;;;;0.7;0.7;;;;;;;12.8;100.0;100800;;;;
2022/09/16 05:01:11;;;;;;;0.7;0.7;;;;;;;12.8;100.0;100800;;;;
2022/09/16 05:02:00;;;;;;;0.7;0.7;;;;;;;12.7;100.0;100800;;;;
2022/09/16 05:03:00;;;;;;;0.7;0.7;;;;;;;12.7;100.0;100800;;;;
2022/09/16 05:04:01;;;;;;;0.7;0.7;;;;;;;12.8;100.0;100790;;;;
2022/09/16 05:05:00;;;;;;;0.7;0.7;;;;;;;12.8;100.0;100790;;;;
2022/09/16 05:06:04;;;;;;;0.7;0.7;;;;;;;12.8;100.0;100790;;;;
2022/09/16 05:07:00;;;;;;;0.7;0.7;;;;;;;12.8;100.0;100790;;;;
2022/09/16 05:08:00;;;;;;;0.7;0.7;;;;;;;12.8;100.0;100790;;;;
2022/09/16 05:10:00;;;;;;;0.7;0.7;;;;;;;12.8;100.0;100800;;;;
2022/09/16 05:11:02;;;;;;;0.7;0.7;;;;;;;12.8;100.0;100800;;;;
2022/09/16 05:12:00;;;;;;;0.7;0.7;;;;;;;12.8;100.0;100800;;;;
2022/09/16 05:13:00;;;;;;;0.7;0.7;;;;;;;12.8;100.0;100800;;;;
2022/09/16 05:14:00;;;;;;;0.7;0.7;;;;;;;12.8;100.0;100790;;;;
2022/09/16 05:15:00;;;;;;;0.7;0.7;;;;;;;12.8;100.0;100790;;;;
2022/09/16 05:16:02;;;;;;;0.7;0.7;;;;;;;12.8;100.0;100790;;;;
2022/09/16 05:17:00;;;;;;;0.7;0.7;;;;;;;12.8;100.0;100790;;;;
2022/09/16 05:18:00;;;;;;;0.7;0.7;;;;;;;12.8;100.0;100790;;;;
2022/09/16 05:19:03;;;;;;;0.7;0.7;;;;;;;12.8;100.0;100790;;;;
2022/09/16 05:20:00;;;;;;;0.7;0.7;;;;;;;12.8;100.0;100790;;;;
2022/09/16 05:21:00;;;;;;;0.7;0.7;;;;;;;12.8;100.0;100790;;;;
2022/09/16 05:22:05;;;;;;;0.7;0.7;;;;;;;12.7;100.0;100790;;;;
2022/09/16 05:23:00;;;;;;;0.7;0.7;;;;;;;12.7;100.0;100790;;;;
2022/09/16 05:24:01;;;;;;;0.7;0.7;;;;;;;12.6;100.0;100800;;;;
2022/09/16 05:25:00;;;;;;;0.7;0.7;;;;;;;12.6;100.0;100800;;;;
2022/09/16 05:26:03;;;;;;;0.7;0.7;;;;;;;12.6;100.0;100800;;;;
2022/09/16 05:27:00;;;;;;;0.7;0.7;;;;;;;12.6;100.0;100800;;;;
2022/09/16 05:28:00;;;;;;;0.7;0.7;;;;;;;12.7;100.0;100800;;;;
2022/09/16 05:29:01;;;;;;;0.7;0.7;;;;;;;12.7;100.0;100800;;;;
2022/09/16 05:30:00;;;;;;;0.7;0.7;;;;;;;12.6;100.0;100790;;;;
2022/09/16 05:31:10;;;;;;;0.7;0.7;;;;;;;12.6;100.0;100790;;;;
2022/09/16 05:32:00;;;;;;;0.7;0.7;;;;;;;12.6;100.0;100790;;;;
2022/09/16 05:33:00;;;;;;;0.7;0.7;;;;;;;12.6;100.0;100790;;;;
2022/09/16 05:34:01;;;;;;;0.7;0.7;;;;;;;12.6;100.0;100800;;;;
2022/09/16 05:35:00;;;;;;;0.7;0.7;;;;;;;12.6;100.0;100800;;;;
2022/09/16 05:36:04;;;;;;;0.7;0.7;;;;;;;12.6;100.0;100800;;;;
2022/09/16 05:37:00;;;;;;;0.6;0.6;;;;;;;12.6;100.0;100800;;;;
2022/09/16 05:38:00;;;;;;;0.6;0.6;;;;;;;12.5;100.0;100790;;;;
2022/09/16 05:39:11;;;;;;;0.6;0.6;;;;;;;12.5;100.0;100790;;;;
2022/09/16 05:40:00;;;;;;;0.6;0.6;;;;;;;12.6;100.0;100800;;;;
2022/09/16 05:41:00;;;;;;;0.6;0.6;;;;;;;12.6;100.0;100800;;;;
2022/09/16 05:42:00;;;;;;;0.6;0.6;;;;;;;12.6;100.0;100800;;;;
2022/09/16 05:43:00;;;;;;;0.6;0.6;;;;;;;12.6;100.0;100800;;;;
2022/09/16 05:44:00;;;;;;;0.6;0.6;;;;;;;12.5;100.0;100810;;;;
2022/09/16 05:45:00;;;;;;;0.6;0.6;;;;;;;12.5;100.0;100810;;;;
2022/09/16 05:46:00;;;;;;;0.6;0.6;;;;;;;12.6;100.0;100800;;;;
2022/09/16 05:47:00;;;;;;;0.6;0.6;;;;;;;12.6;100.0;100800;;;;
2022/09/16 05:48:00;;;;;;;0.6;0.6;;;;;;;12.6;100.0;100800;;;;
2022/09/16 05:53:00;;;;;;;0.6;0.6;;;;;;;12.6;100.0;100810;;;;
2022/09/16 05:54:00;;;;;;;0.6;0.6;;;;;;;12.6;100.0;100810;;;;
2022/09/16 05:55:00;;;;;;;0.6;0.6;;;;;;;12.6;100.0;100810;;;;
2022/09/16 05:56:04;;;;;;;0.6;0.6;;;;;;;12.6;100.0;100810;;;;
2022/09/16 05:57:06;;;;;;;0.6;0.6;;;;;;;12.6;100.0;100810;;;;
2022/09/16 06:03:00;;;;;;;0.6;0.6;;;;;;;12.5;100.0;100820;;;;
2022/09/16 06:04:01;;;;;;;0.6;0.6;;;;;;;12.5;100.0;100830;;;;
2022/09/16 06:05:00;;;;;;;0.6;0.6;;;;;;;12.5;100.0;100830;;;;
2022/09/16 06:06:00;;;;;;;0.6;0.6;;;;;;;12.3;100.0;100830;;;;
2022/09/16 06:07:00;;;;;;;0.6;0.6;;;;;;;12.3;100.0;100830;;;;
2022/09/16 06:08:00;;;;;;;0.6;0.6;;;;;;;12.3;100.0;100830;;;;
2022/09/16 06:09:04;;;;;;;0.6;0.6;;;;;;;12.4;100.0;100830;;;;
2022/09/16 06:10:00;;;;;;;0.6;0.6;;;;;;;12.5;100.0;100830;;;;
2022/09/16 06:11:01;;;;;;;0.6;0.6;;;;;;;12.5;100.0;100830;;;;
2022/09/16 06:12:02;;;;;;;0.6;0.6;;;;;;;12.6;100.0;100830;;;;
2022/09/16 06:13:00;;;;;;;0.6;0.6;;;;;;;12.6;100.0;100830;;;;
2022/09/16 06:14:01;;;;;;;0.6;0.6;;;;;;;12.5;100.0;100830;;;;
2022/09/16 06:15:00;;;;;;;0.6;0.6;;;;;;;12.5;100.0;100840;;;;
2022/09/16 06:16:00;;;;;;;0.6;0.6;;;;;;;12.5;100.0;100840;;;;
2022/09/16 06:17:00;;;;;;;0.5;0.5;;;;;;;12.5;100.0;100840;;;;
2022/09/16 06:18:06;;;;;;;0.5;0.5;;;;;;;12.6;100.0;100830;;;;
2022/09/16 06:19:01;;;;;;;0.5;0.5;;;;;;;12.6;100.0;100830;;;;
2022/09/16 06:20:00;;;;;;;0.5;0.5;;;;;;;12.7;100.0;100830;;;;
2022/09/16 06:21:02;;;;;;;0.5;0.5;;;;;;;12.7;100.0;100820;;;;
2022/09/16 06:22:00;;;;;;;0.5;0.5;;;;;;;12.7;100.0;100820;;;;
2022/09/16 06:23:00;;;;;;;0.5;0.5;;;;;;;12.7;100.0;100820;;;;
2022/09/16 06:24:00;;;;;;;0.5;0.5;;;;;;;12.7;100.0;100820;;;;
2022/09/16 06:25:00;;;;;;;0.5;0.5;;;;;;;12.7;100.0;100820;;;;
2022/09/16 06:26:01;;;;;;;0.5;0.5;;;;;;;12.6;100.0;100820;;;;
2022/09/16 06:27:00;;;;;;;0.5;0.5;;;;;;;12.6;100.0;100820;;;;
2022/09/16 06:28:00;;;;;;;0.5;0.5;;;;;;;12.6;100.0;100820;;;;
2022/09/16 06:29:00;;;;;;;0.5;0.5;;;;;;;12.6;100.0;100820;;;;
2022/09/16 06:30:00;;;;;;;0.5;0.5;;;;;;;12.6;100.0;100830;;;;
2022/09/16 06:31:02;;;;;;;0.5;0.5;;;;;;;12.6;100.0;100830;;;;
2022/09/16 06:32:00;;;;;;;0.5;0.5;;;;;;;12.7;100.0;100840;;;;
2022/09/16 06:33:00;;;;;;;0.5;0.5;;;;;;;12.7;100.0;100840;;;;
2022/09/16 06:34:00;;;;;;;0.5;0.5;;;;;;;12.6;100.0;100840;;;;
2022/09/16 06:35:00;;;;;;;0.5;0.5;;;;;;;12.6;100.0;100840;;;;
2022/09/16 06:36:02;;;;;;;0.5;0.5;;;;;;;12.7;100.0;100840;;;;
2022/09/16 06:37:00;;;;;;;0.7;0.7;;;;;;;12.7;100.0;100840;;;;
2022/09/16 06:38:00;;;;;;;0.7;0.7;;;;;;;12.8;100.0;100840;;;;
2022/09/16 06:39:00;;;;;;;0.7;0.7;;;;;;;12.8;100.0;100840;;;;
2022/09/16 06:40:00;;;;;;;0.7;0.7;;;;;;;12.8;100.0;100840;;;;
2022/09/16 06:41:00;;;;;;;0.7;0.7;;;;;;;12.8;100.0;100840;;;;
2022/09/16 06:42:00;;;;;;;0.7;0.7;;;;;;;12.8;100.0;100840;;;;
2022/09/16 06:43:00;;;;;;;0.7;0.7;;;;;;;12.8;100.0;100840;;;;
2022/09/16 06:44:00;;;;;;;0.7;0.7;;;;;;;12.7;100.0;100850;;;;
2022/09/16 06:45:01;;;;;;;0.7;0.7;;;;;;;12.7;100.0;100850;;;;
2022/09/16 06:46:01;;;;;;;0.7;0.7;;;;;;;12.7;100.0;100850;;;;
2022/09/16 06:47:00;;;;;;;0.7;0.7;;;;;;;12.7;100.0;100850;;;;
2022/09/16 06:48:00;;;;;;;0.7;0.7;;;;;;;12.8;100.0;100850;;;;
2022/09/16 06:49:06;;;;;;;0.7;0.7;;;;;;;12.8;100.0;100850;;;;
2022/09/16 06:50:00;;;;;;;0.7;0.7;;;;;;;12.7;100.0;100850;;;;
2022/09/16 06:51:04;;;;;;;0.7;0.7;;;;;;;12.7;100.0;100850;;;;
2022/09/16 06:52:00;;;;;;;0.7;0.7;;;;;;;12.8;100.0;100850;;;;
2022/09/16 06:53:00;;;;;;;0.7;0.7;;;;;;;12.8;100.0;100850;;;;
2022/09/16 06:54:01;;;;;;;0.7;0.7;;;;;;;12.8;100.0;100850;;;;
2022/09/16 06:55:00;;;;;;;0.7;0.7;;;;;;;12.8;100.0;100850;;;;
2022/09/16 06:56:02;;;;;;;0.7;0.7;;;;;;;12.8;100.0;100850;;;;
2022/09/16 06:57:00;;;;;;;0.6;0.6;;;;;;;12.8;100.0;100850;;;;
2022/09/16 06:58:00;;;;;;;0.6;0.6;;;;;;;12.9;100.0;100850;;;;
2022/09/16 06:59:00;;;;;;;0.6;0.6;;;;;;;12.9;100.0;100850;;;;
2022/09/16 07:00:00;;;;;;;0.6;0.6;;;;;;;12.8;100.0;100850;;;;
2022/09/16 07:01:04;;;;;;;0.6;0.6;;;;;;;12.8;100.0;100850;;;;
2022/09/16 07:02:00;;;;;;;0.6;0.6;;;;;;;12.8;100.0;100850;;;;
2022/09/16 07:03:01;;;;;;;0.6;0.6;;;;;;;12.8;100.0;100850;;;;
2022/09/16 07:04:03;;;;;;;0.6;0.6;;;;;;;12.8;100.0;100850;;;;
2022/09/16 07:05:01;;;;;;;0.6;0.6;;;;;;;12.8;100.0;100850;;;;
2022/09/16 07:06:00;;;;;;;0.6;0.6;;;;;;;12.8;100.0;100850;;;;
2022/09/16 07:07:10;;;;;;;0.6;0.6;;;;;;;12.8;100.0;100850;;;;
2022/09/16 07:08:00;;;;;;;0.6;0.6;;;;;;;12.8;100.0;100850;;;;
2022/09/16 07:09:00;;;;;;;0.6;0.6;;;;;;;12.8;100.0;100850;;;;
2022/09/16 07:10:00;;;;;;;0.6;0.6;;;;;;;12.9;100.0;100850;;;;